Tontitown, AR (72770)

12:39 AM CST on February 14, 2016 (GMT -0600)
Elm Springs Rd. | | Change Station
CLOSE
Current Station
Personal Weather Station
Location: Elm Springs, AR
Elevation: 1257 ft
Nearby Weather Stations
Active Advisory: Winter Weather Advisory

Elev 1257 ft 36.21 °N, 94.23 °W | Updated 6 seconds ago

Overcast
Overcast
35.6 °F
Feels Like 31 °F
N
6.0
Wind Variable Wind from East
Gusts 7.0 mph

Today
High -- | Low -- °F
--% Chance of Precip.
Yesterday
High -- | Low -- °F
Precip. -- in
Pressure 30.16 in
Visibility 10.0 miles
Clouds Overcast 3900 ft
Windchill 31 °F
Dew Point 16 °F
Humidity 45%
Rainfall 0.00 in
Snow Depth Not available.
7:06 AM 5:56 PM
Waxing Crescent, 38% visible
METAR KXNA 140553Z AUTO 13010KT 10SM OVC039 02/M11 A3014 RMK AO2 SLP211 T00221111 10072 20022 401001028 58007
Pressure 30.16 in
Visibility 10.0 miles
Clouds Overcast 3900 ft
Windchill 31 °F
Dew Point 16 °F
Humidity 45%
Rainfall 0.00 in
Snow Depth Not available.
7:06 AM 5:56 PM
Waxing Crescent, 38% visible
METAR KXNA 140553Z AUTO 13010KT 10SM OVC039 02/M11 A3014 RMK AO2 SLP211 T00221111 10072 20022 401001028 58007

10-Day Weather Forecast

Almanac

Astronomy

Feb. 14, 2016 Rise Set
Actual Time
Civil Twilight
Nautical Twilight
Astronomical Twilight
Moon
Length of Visible Light
Length of Day
Tomorrow will be .
, % of the Moon is Illuminated

Today's Extremes

State Highs State Lows

Community

WunderPhotos

Upload Photos

1,892,757 photos uploaded!

WunderBlog® & News

Nearby

Air Quality

  Air Quality AQ Index Pollutant
Not available.

Snow Depth

Station Depth Elevation

Earthquake Activity

City Distance Mag. Time & Date
Minimum magnitude displayed is 2.5.

Coastal Water Temperatures

Place Temperature

Stations

Nearby Weather Stations

Station Location Temp. Windchill Dew Point Humidity Wind Precip. Elev Updated Type
                   

Watches & Warnings

Winter Weather Advisory
Issued: 9:49 PM CST Feb. 13, 2016 – National Weather Service

... Winter Weather Advisory remains in effect until 10 am CST
Sunday...

* affected area... in Arkansas... Benton... Carroll... Washington...
Madison... Crawford... and Franklin counties.

* Timing... patches of light freezing rain and freezing drizzle
will be possible late tonight into Sunday morning.

* Main impact... ice accumulations of less than one-tenth of an
inch will occur mainly on elevated surfaces such as bridges and
overpasses creating hazardous driving conditions. The main
threat will occur in the deeper valleys of northwest Arkansas.

Precautionary/preparedness actions...

* a Winter Weather Advisory means that wintry precipitation may
cause travel difficulties.